0°C Temp
-4°C Dewpoint
75% Humidity
Temperature
13 KM/H
8 MPH
7 KTS
270°
Due West

Wind Speed
Clear
Conditions
Pressure 1018.92 (hPa) - 30.09 (in)
Visibility 6.2 (mi) - 10.0 (km)

Current Conditions
SAEZ
Location 120km(km)
Metar :SAEZ 271100Z 27007KT CAVOK 00/M04 Q1019 NOSIG
Tue 27th July 08:00 am

Airport
  Metar Aviation API Data Provided by https://www.checkwx.com/ PHP scripts by weather34.com ©2021